sim
Sign-in with your pilot id or email,
or register
Callsign
Passwort

Schedule Details

Flight Number: EWG220
Departure: Munich Airport (EDDM) at 10:05
Arrival: Cancun International Airport (MMUN) at 22:35
Route: Eurowings Passenger Schedule. Enter filed route here before submitting Pirep.

Weather Information
Getting current METAR information for EDDM 220450Z 06001KT 2500 1200N R08L/1400D R08R/P2000N BCFG NSC 09/09 Q1014 NOSIG
Getting current METAR information for MMUN 220447Z 06004KT 7SM SKC 27/25 A2994 RMK SC

Schedule Frequency

Route Map